createdAt,value
2022-11-25T00:01:22.826Z,32.83
2022-11-25T00:03:52.542Z,32.87
2022-11-25T00:06:22.348Z,32.77
2022-11-25T00:08:52.153Z,31.80
2022-11-25T00:11:20.372Z,32.50
2022-11-25T00:13:49.229Z,33.53
2022-11-25T00:16:19.912Z,33.13
2022-11-25T00:18:51.281Z,31.17
2022-11-25T00:21:21.800Z,31.20
2022-11-25T00:23:53.332Z,31.33
2022-11-25T00:26:22.652Z,30.90
2022-11-25T00:28:51.799Z,30.23
2022-11-25T00:31:21.964Z,30.40
2022-11-25T00:33:52.122Z,30.07
2022-11-25T00:36:22.540Z,29.47
2022-11-25T00:38:54.940Z,28.23
2022-11-25T00:41:40.842Z,27.80
2022-11-25T00:44:28.376Z,28.70
2022-11-25T00:46:56.568Z,28.07
2022-11-25T00:49:26.537Z,28.20
2022-11-25T00:51:54.737Z,28.50
2022-11-25T00:54:22.946Z,28.30
2022-11-25T00:56:51.228Z,27.63
2022-11-25T00:59:19.522Z,27.20
2022-11-25T01:01:48.529Z,26.80
2022-11-25T01:04:17.082Z,25.43
2022-11-25T01:06:46.886Z,26.30
2022-11-25T01:09:15.573Z,25.87
2022-11-25T01:11:43.793Z,26.23
2022-11-25T01:14:12.393Z,26.03
2022-11-25T01:16:40.647Z,25.67
2022-11-25T01:19:09.105Z,25.30
2022-11-25T01:21:37.497Z,24.27
2022-11-25T01:24:08.537Z,23.20
2022-11-25T01:26:37.635Z,23.40
2022-11-25T01:29:08.898Z,21.30
2022-11-25T01:31:38.482Z,22.30
2022-11-25T01:34:08.659Z,21.40
2022-11-25T01:36:36.976Z,20.57
2022-11-25T01:39:07.125Z,20.57
2022-11-25T01:41:36.428Z,20.20
2022-11-25T01:44:10.228Z,18.60
2022-11-25T01:46:52.537Z,19.17
2022-11-25T01:49:25.437Z,17.33
2022-11-25T01:51:58.411Z,16.80
2022-11-25T01:54:30.935Z,16.47
2022-11-25T01:57:03.160Z,14.90
2022-11-25T01:59:34.507Z,15.23
2022-11-25T02:02:03.646Z,15.63
2022-11-25T02:04:36.424Z,15.70
2022-11-25T02:07:10.977Z,14.60
2022-11-25T02:09:43.039Z,14.30
2022-11-25T02:12:11.938Z,13.83
2022-11-25T02:14:40.861Z,13.00
2022-11-25T02:17:09.461Z,13.40
2022-11-25T02:19:50.447Z,14.23
2022-11-25T02:22:24.939Z,12.87
2022-11-25T02:24:59.230Z,12.87
2022-11-25T02:27:29.296Z,12.87
2022-11-25T02:29:57.743Z,12.03
2022-11-25T02:32:26.170Z,12.27
2022-11-25T02:34:54.373Z,12.30
2022-11-25T02:37:25.159Z,11.97
2022-11-25T02:39:54.623Z,11.87
2022-11-25T02:42:24.184Z,12.03
2022-11-25T02:44:54.033Z,12.47
2022-11-25T02:47:22.199Z,11.27
2022-11-25T02:49:50.384Z,13.10
2022-11-25T02:52:18.549Z,11.97
2022-11-25T02:54:46.736Z,12.07
2022-11-25T02:57:14.946Z,11.50
2022-11-25T02:59:43.087Z,10.87
2022-11-25T03:02:12.694Z,12.30
2022-11-25T03:04:40.864Z,11.27
2022-11-25T03:07:09.055Z,12.03
2022-11-25T03:09:37.236Z,11.20
2022-11-25T03:12:20.968Z,10.23
2022-11-25T03:14:49.528Z,11.17
2022-11-25T03:17:19.069Z,10.67
2022-11-25T03:19:47.297Z,10.57
2022-11-25T03:22:15.591Z,10.60
2022-11-25T03:24:43.834Z,10.37
2022-11-25T03:27:12.011Z,10.03
2022-11-25T03:29:40.182Z,10.93
2022-11-25T03:32:09.882Z,9.97
2022-11-25T03:34:39.738Z,10.17
2022-11-25T03:37:08.427Z,10.40
2022-11-25T03:39:36.718Z,10.10
2022-11-25T03:42:05.321Z,9.40
2022-11-25T03:44:33.710Z,9.93
2022-11-25T03:47:02.033Z,9.73
2022-11-25T03:49:30.195Z,9.63
2022-11-25T03:51:59.770Z,9.40
2022-11-25T03:54:28.144Z,9.53
2022-11-25T03:56:56.325Z,9.30
2022-11-25T03:59:24.802Z,9.77
2022-11-25T04:01:53.233Z,9.50
2022-11-25T04:04:21.437Z,9.97
2022-11-25T04:06:49.748Z,9.80
2022-11-25T04:09:19.521Z,9.17
2022-11-25T04:12:04.882Z,9.63
2022-11-25T04:14:33.445Z,8.53
2022-11-25T04:17:01.881Z,9.73
2022-11-25T04:19:30.356Z,8.97
2022-11-25T04:21:59.806Z,9.40
2022-11-25T04:24:29.576Z,9.17
2022-11-25T04:26:57.769Z,8.90
2022-11-25T04:29:26.105Z,8.97
2022-11-25T04:31:54.253Z,8.87
2022-11-25T04:34:22.400Z,8.83
2022-11-25T04:36:50.555Z,9.27
2022-11-25T04:39:18.848Z,8.83
2022-11-25T04:41:48.433Z,9.07
2022-11-25T04:44:16.627Z,9.43
2022-11-25T04:46:45.097Z,9.40
2022-11-25T04:49:13.321Z,9.20
2022-11-25T04:51:41.479Z,8.60
2022-11-25T04:54:12.189Z,9.13
2022-11-25T04:56:44.287Z,8.63
2022-11-25T04:59:31.336Z,8.90
2022-11-25T05:01:59.568Z,8.70
2022-11-25T05:04:27.785Z,9.40
2022-11-25T05:06:56.004Z,8.53
2022-11-25T05:09:24.227Z,8.70
2022-11-25T05:11:52.363Z,8.80
2022-11-25T05:14:22.683Z,8.80
2022-11-25T05:16:51.017Z,8.47
2022-11-25T05:19:19.428Z,8.90
2022-11-25T05:21:47.676Z,8.40
2022-11-25T05:24:16.112Z,8.93
2022-11-25T05:26:44.260Z,8.70
2022-11-25T05:29:12.634Z,8.67
2022-11-25T05:31:42.189Z,8.63
2022-11-25T05:34:10.376Z,8.27
2022-11-25T05:36:38.552Z,8.77
2022-11-25T05:39:07.119Z,8.50
2022-11-25T05:41:35.287Z,8.43
2022-11-25T05:44:05.177Z,8.70
2022-11-25T05:46:33.491Z,7.97
2022-11-25T05:49:03.225Z,8.23
2022-11-25T05:51:31.740Z,7.90
2022-11-25T05:54:00.078Z,7.60
2022-11-25T05:56:28.273Z,7.53
2022-11-25T05:58:57.558Z,7.53
2022-11-25T06:01:25.756Z,7.90
2022-11-25T06:03:53.905Z,7.83
2022-11-25T06:06:23.526Z,7.57
2022-11-25T06:08:51.757Z,7.57
2022-11-25T06:11:19.965Z,6.90
2022-11-25T06:13:48.245Z,7.30
2022-11-25T06:16:19.717Z,7.27
2022-11-25T06:18:48.174Z,7.03
2022-11-25T06:21:17.291Z,6.73
2022-11-25T06:23:47.165Z,7.47
2022-11-25T06:26:17.856Z,6.80
2022-11-25T06:28:46.051Z,6.87
2022-11-25T06:31:16.219Z,7.00
2022-11-25T06:33:47.217Z,6.63
2022-11-25T06:36:17.429Z,6.30
2022-11-25T06:38:47.841Z,5.77
2022-11-25T06:41:16.860Z,5.87
2022-11-25T06:43:45.315Z,5.97
2022-11-25T06:46:19.815Z,5.43
2022-11-25T06:48:51.210Z,5.23
2022-11-25T06:51:19.467Z,6.03
2022-11-25T06:53:49.086Z,5.33
2022-11-25T06:56:19.914Z,5.50
2022-11-25T06:58:49.121Z,5.80
2022-11-25T07:01:19.634Z,5.60
2022-11-25T07:03:49.801Z,5.43
2022-11-25T07:06:19.136Z,5.40
2022-11-25T07:08:49.173Z,5.47
2022-11-25T07:11:19.776Z,5.90
2022-11-25T07:13:48.764Z,6.13
2022-11-25T07:16:17.064Z,5.70
2022-11-25T07:18:45.345Z,5.33
2022-11-25T07:21:14.997Z,5.57
2022-11-25T07:23:45.093Z,5.33
2022-11-25T07:26:17.034Z,5.27
2022-11-25T07:28:46.076Z,5.00
2022-11-25T07:31:28.701Z,5.03
2022-11-25T07:34:02.670Z,5.10
2022-11-25T07:36:32.197Z,5.37
2022-11-25T07:39:01.724Z,5.20
2022-11-25T07:41:31.542Z,5.73
2022-11-25T07:44:01.662Z,5.60
2022-11-25T07:46:32.033Z,5.27
2022-11-25T07:49:02.270Z,5.40
2022-11-25T07:51:33.343Z,5.53
2022-11-25T07:54:02.862Z,6.10
2022-11-25T07:56:32.841Z,6.20
2022-11-25T07:59:00.992Z,5.90
2022-11-25T08:01:29.475Z,6.07
2022-11-25T08:03:57.860Z,6.47
2022-11-25T08:06:27.364Z,6.37
2022-11-25T08:08:56.494Z,6.30
2022-11-25T08:11:26.829Z,6.33
2022-11-25T08:13:56.882Z,6.13
2022-11-25T08:16:27.809Z,5.93
2022-11-25T08:18:56.837Z,5.90
2022-11-25T08:21:25.561Z,6.43
2022-11-25T08:23:54.349Z,6.97
2022-11-25T08:26:25.726Z,7.00
2022-11-25T08:28:55.971Z,7.10
2022-11-25T08:31:26.227Z,7.17
2022-11-25T08:33:55.463Z,7.37
2022-11-25T08:36:24.537Z,7.20
2022-11-25T08:38:54.342Z,6.57
2022-11-25T08:41:25.707Z,7.00
2022-11-25T08:43:55.641Z,7.90
2022-11-25T08:46:25.981Z,7.63
2022-11-25T08:48:54.253Z,7.60
2022-11-25T08:51:24.512Z,7.93
2022-11-25T08:53:52.968Z,7.40
2022-11-25T08:56:25.991Z,8.17
2022-11-25T08:58:56.587Z,6.70
2022-11-25T09:01:26.064Z,7.80
2022-11-25T09:03:55.665Z,8.07
2022-11-25T09:06:24.650Z,7.93
2022-11-25T09:08:55.583Z,8.10
2022-11-25T09:11:24.018Z,8.50
2022-11-25T09:13:52.299Z,8.00
2022-11-25T09:16:22.153Z,7.70
2022-11-25T09:18:55.597Z,8.70
2022-11-25T09:21:27.544Z,8.67
2022-11-25T09:23:56.611Z,8.90
2022-11-25T09:26:26.860Z,8.90
2022-11-25T09:28:55.941Z,8.20
2022-11-25T09:31:25.756Z,7.80
2022-11-25T09:33:54.336Z,7.97
2022-11-25T09:36:23.701Z,8.20
2022-11-25T09:38:52.635Z,8.67
2022-11-25T09:41:49.135Z,7.40
2022-11-25T09:44:45.724Z,8.23
2022-11-25T09:47:24.734Z,7.93
2022-11-25T09:50:06.542Z,8.40
2022-11-25T09:52:39.353Z,8.30
2022-11-25T09:55:11.388Z,7.80
2022-11-25T09:57:59.441Z,8.50
2022-11-25T10:00:40.993Z,8.17
2022-11-25T10:03:20.757Z,8.50
2022-11-25T10:05:55.033Z,7.50
2022-11-25T10:08:29.147Z,8.00
2022-11-25T10:11:02.840Z,8.27
2022-11-25T10:13:38.487Z,9.07
2022-11-25T10:16:14.764Z,8.07
2022-11-25T10:18:51.184Z,7.57
2022-11-25T10:21:19.461Z,7.70
2022-11-25T10:23:47.835Z,8.13
2022-11-25T10:26:18.592Z,7.10
2022-11-25T10:28:53.240Z,8.13
2022-11-25T10:31:26.778Z,8.77
2022-11-25T10:33:59.473Z,7.93
2022-11-25T10:36:32.066Z,7.57
2022-11-25T10:39:04.311Z,7.73
2022-11-25T10:41:36.178Z,8.07
2022-11-25T10:44:05.282Z,7.97
2022-11-25T10:47:11.815Z,6.87
2022-11-25T10:49:39.494Z,8.43
2022-11-25T10:52:12.610Z,8.53
2022-11-25T10:54:41.474Z,7.63
2022-11-25T10:57:20.563Z,7.90
2022-11-25T10:59:57.929Z,8.17
2022-11-25T11:02:28.248Z,8.50
2022-11-25T11:05:03.436Z,7.40
2022-11-25T11:07:34.281Z,7.87
2022-11-25T11:10:19.867Z,8.30
2022-11-25T11:12:56.817Z,9.13
2022-11-25T11:15:26.666Z,8.03
2022-11-25T11:17:56.967Z,8.43
2022-11-25T11:20:28.230Z,8.47
2022-11-25T11:22:58.648Z,7.93
2022-11-25T11:25:34.880Z,7.87
2022-11-25T11:28:04.357Z,8.80
2022-11-25T11:30:33.888Z,8.23
2022-11-25T11:33:05.729Z,7.53
2022-11-25T11:35:50.317Z,8.07
2022-11-25T11:38:30.946Z,8.60
2022-11-25T11:41:09.833Z,8.13
2022-11-25T11:43:49.862Z,8.97
2022-11-25T11:46:33.406Z,9.47
2022-11-25T11:49:29.065Z,9.30
2022-11-25T11:52:04.954Z,7.27
2022-11-25T11:54:37.277Z,9.03
2022-11-25T11:57:08.465Z,9.63
2022-11-25T11:59:48.936Z,8.27
2022-11-25T12:02:37.470Z,9.20
2022-11-25T12:05:16.915Z,9.40
2022-11-25T12:07:54.817Z,9.70
2022-11-25T12:10:28.411Z,8.33
2022-11-25T12:13:09.696Z,9.40
2022-11-25T12:15:43.027Z,9.70
2022-11-25T12:18:23.403Z,10.30
2022-11-25T12:20:58.674Z,8.80
2022-11-25T12:23:40.001Z,9.77
2022-11-25T12:26:13.784Z,9.80
2022-11-25T12:28:49.098Z,9.97
2022-11-25T12:31:23.688Z,8.17
2022-11-25T12:34:03.108Z,10.70
2022-11-25T12:36:36.601Z,10.77
2022-11-25T12:39:13.190Z,9.40
2022-11-25T12:41:45.744Z,9.70
2022-11-25T12:44:17.741Z,10.23
2022-11-25T12:46:48.008Z,8.80
2022-11-25T12:49:20.910Z,9.27
2022-11-25T12:52:18.098Z,9.50
2022-11-25T12:55:05.656Z,8.20
2022-11-25T12:58:01.021Z,9.10
2022-11-25T13:00:42.693Z,9.97
2022-11-25T13:03:39.050Z,9.10
2022-11-25T13:06:38.834Z,10.20
2022-11-25T13:09:23.276Z,9.03
2022-11-25T13:12:08.113Z,9.40
2022-11-25T13:15:06.573Z,9.60
2022-11-25T13:17:40.176Z,10.37
2022-11-25T13:20:34.361Z,8.77
2022-11-25T13:23:22.528Z,7.60
2022-11-25T13:25:55.962Z,9.83
2022-11-25T13:28:33.360Z,8.80
2022-11-25T13:31:24.136Z,7.90
2022-11-25T13:34:08.520Z,7.30
2022-11-25T13:36:47.812Z,7.63
2022-11-25T13:39:18.121Z,9.07
2022-11-25T13:41:50.254Z,10.23
2022-11-25T13:44:29.683Z,8.37
2022-11-25T13:46:59.783Z,6.73
2022-11-25T13:49:35.304Z,10.83
2022-11-25T13:52:26.955Z,9.37
2022-11-25T13:54:56.974Z,10.87
2022-11-25T13:57:30.642Z,12.17
2022-11-25T14:00:02.199Z,9.73
2022-11-25T14:02:44.918Z,10.77
2022-11-25T14:05:49.803Z,15.20
2022-11-25T14:08:28.175Z,10.63
2022-11-25T14:11:24.423Z,12.20
2022-11-25T14:14:10.095Z,9.50
2022-11-25T14:16:55.611Z,11.80
2022-11-25T14:19:51.882Z,12.37
2022-11-25T14:22:43.013Z,10.27
2022-11-25T14:25:17.977Z,12.03
2022-11-25T14:27:49.921Z,11.53
2022-11-25T14:30:18.825Z,8.50
2022-11-25T14:32:56.947Z,11.87
2022-11-25T14:35:30.013Z,10.50
2022-11-25T14:38:01.294Z,11.37
2022-11-25T14:40:35.675Z,12.57
2022-11-25T14:43:06.784Z,11.93
2022-11-25T14:45:37.103Z,12.80
2022-11-25T14:48:16.710Z,12.13
2022-11-25T14:50:56.522Z,10.97
2022-11-25T14:53:25.935Z,12.10
2022-11-25T14:55:55.029Z,11.03
2022-11-25T14:58:23.488Z,11.53
2022-11-25T15:00:53.641Z,12.80
2022-11-25T15:03:23.206Z,10.30
2022-11-25T15:05:57.894Z,12.70
2022-11-25T15:08:27.555Z,9.80
2022-11-25T15:10:57.620Z,10.70
2022-11-25T15:13:31.595Z,12.60
2022-11-25T15:16:07.828Z,9.53
2022-11-25T15:18:39.335Z,13.17
2022-11-25T15:21:07.997Z,12.87
2022-11-25T15:23:38.765Z,10.77
2022-11-25T15:26:18.515Z,13.47
2022-11-25T15:28:47.125Z,12.83
2022-11-25T15:31:20.443Z,12.80
2022-11-25T15:33:54.823Z,14.10
2022-11-25T15:36:24.346Z,10.23
2022-11-25T15:38:52.577Z,13.87
2022-11-25T15:41:28.891Z,14.53
2022-11-25T15:43:59.359Z,13.23
2022-11-25T15:46:28.116Z,13.90
2022-11-25T15:49:00.346Z,16.00
2022-11-25T15:51:39.609Z,12.33
2022-11-25T15:54:16.575Z,13.97
2022-11-25T15:56:49.446Z,16.53
2022-11-25T15:59:40.707Z,12.53
2022-11-25T16:02:35.424Z,15.33
2022-11-25T16:05:27.018Z,15.70
2022-11-25T16:08:24.379Z,14.77
2022-11-25T16:10:57.835Z,17.20
2022-11-25T16:13:36.646Z,16.23
2022-11-25T16:16:33.116Z,15.40
2022-11-25T16:19:17.758Z,18.40
2022-11-25T16:21:52.896Z,18.70
2022-11-25T16:24:32.532Z,16.23
2022-11-25T16:27:03.347Z,18.47
2022-11-25T16:29:34.106Z,19.33
2022-11-25T16:32:12.532Z,15.43
2022-11-25T16:34:40.751Z,15.53
2022-11-25T16:37:10.416Z,18.00
2022-11-25T16:39:39.667Z,19.53
2022-11-25T16:42:09.050Z,14.70
2022-11-25T16:44:38.474Z,17.27
2022-11-25T16:47:06.750Z,19.13
2022-11-25T16:49:35.150Z,18.83
2022-11-25T16:52:03.741Z,12.43
2022-11-25T16:54:33.917Z,17.73
2022-11-25T16:57:02.085Z,18.17
2022-11-25T16:59:32.558Z,16.47
2022-11-25T17:02:01.618Z,12.50
2022-11-25T17:04:29.955Z,12.53
2022-11-25T17:09:48.013Z,12.10
2022-11-25T17:12:19.157Z,11.67
2022-11-25T17:14:49.228Z,14.27
2022-11-25T17:17:24.749Z,12.57
2022-11-25T17:19:53.686Z,12.60
2022-11-25T17:22:24.526Z,11.27
2022-11-25T17:24:54.416Z,11.27
2022-11-25T17:27:26.514Z,11.20
2022-11-25T17:29:55.752Z,11.63
2022-11-25T17:32:25.435Z,11.10
2022-11-25T17:34:53.912Z,10.70
2022-11-25T17:37:24.022Z,11.70
2022-11-25T17:39:54.242Z,12.70
2022-11-25T17:42:26.548Z,13.23
2022-11-25T17:44:54.748Z,12.83
2022-11-25T17:47:23.272Z,13.17
2022-11-25T17:49:52.113Z,14.23
2022-11-25T17:52:20.414Z,13.67
2022-11-25T17:54:48.581Z,15.63
2022-11-25T17:57:23.354Z,13.60
2022-11-25T17:59:51.640Z,15.23
2022-11-25T18:02:22.616Z,12.50
2022-11-25T18:04:51.126Z,15.90
2022-11-25T18:07:19.741Z,14.40
2022-11-25T18:09:48.001Z,13.73
2022-11-25T18:12:34.060Z,14.80
2022-11-25T18:15:07.639Z,15.83
2022-11-25T18:17:37.236Z,16.90
2022-11-25T18:20:16.975Z,17.53
2022-11-25T18:22:45.769Z,18.30
2022-11-25T18:25:17.746Z,18.17
2022-11-25T18:27:48.462Z,18.30
2022-11-25T18:30:19.918Z,18.40
2022-11-25T18:32:48.585Z,18.13
2022-11-25T18:35:19.838Z,17.73
2022-11-25T18:37:48.460Z,18.03
2022-11-25T18:40:17.386Z,18.17
2022-11-25T18:42:50.244Z,18.10
2022-11-25T18:45:21.383Z,17.87
2022-11-25T18:47:49.684Z,18.97
2022-11-25T18:50:21.054Z,19.07
2022-11-25T18:52:49.934Z,18.93
2022-11-25T18:55:20.548Z,18.63
2022-11-25T18:57:51.863Z,19.37
2022-11-25T19:00:38.534Z,19.47
2022-11-25T19:03:14.639Z,18.90
2022-11-25T19:05:42.776Z,19.53
2022-11-25T19:08:10.936Z,19.53
2022-11-25T19:10:40.306Z,21.10
2022-11-25T19:13:15.248Z,20.93
2022-11-25T19:15:45.278Z,20.80
2022-11-25T19:18:18.489Z,21.13
2022-11-25T19:20:46.706Z,20.73
2022-11-25T19:23:21.315Z,21.70
2022-11-25T19:25:50.002Z,21.57
2022-11-25T19:28:19.643Z,23.57
2022-11-25T19:30:48.409Z,22.57
2022-11-25T19:33:28.623Z,23.37
2022-11-25T19:35:56.956Z,24.33
2022-11-25T19:38:26.308Z,23.93
2022-11-25T19:40:56.114Z,24.67
2022-11-25T19:43:27.078Z,25.20
2022-11-25T19:45:56.558Z,25.43
2022-11-25T19:48:27.226Z,25.60
2022-11-25T19:51:01.943Z,25.10
2022-11-25T19:53:33.856Z,24.47
2022-11-25T19:56:04.661Z,24.53
2022-11-25T19:58:34.519Z,26.17
2022-11-25T20:01:05.565Z,25.87
2022-11-25T20:03:34.113Z,26.13
2022-11-25T20:06:02.381Z,25.33
2022-11-25T20:08:30.649Z,26.00
2022-11-25T20:10:59.404Z,25.37
2022-11-25T20:13:28.067Z,26.57
2022-11-25T20:15:59.830Z,26.87
2022-11-25T20:18:28.698Z,26.67
2022-11-25T20:21:02.144Z,27.80
2022-11-25T20:23:38.599Z,25.83
2022-11-25T20:26:15.750Z,26.67
2022-11-25T20:28:43.981Z,25.90
2022-11-25T20:31:15.074Z,26.43
2022-11-25T20:33:43.323Z,27.13
2022-11-25T20:36:16.636Z,27.03
2022-11-25T20:38:48.368Z,26.13
2022-11-25T20:41:17.412Z,25.10
2022-11-25T20:43:49.196Z,26.37
2022-11-25T20:46:21.509Z,25.93
2022-11-25T20:48:50.942Z,26.30
2022-11-25T20:51:21.061Z,25.63
2022-11-25T20:53:51.112Z,25.20
2022-11-25T20:56:21.227Z,23.73
2022-11-25T20:58:49.450Z,24.63
2022-11-25T21:01:20.034Z,25.20
2022-11-25T21:03:50.044Z,23.57
2022-11-25T21:06:21.107Z,24.53
2022-11-25T21:08:51.289Z,23.90
2022-11-25T21:11:20.929Z,22.50
2022-11-25T21:13:49.762Z,21.30
2022-11-25T21:16:19.512Z,22.17
2022-11-25T21:18:47.747Z,23.40
2022-11-25T21:21:19.121Z,22.70
2022-11-25T21:23:48.710Z,22.30
2022-11-25T21:26:20.411Z,21.67
2022-11-25T21:28:51.150Z,20.97
2022-11-25T21:31:22.850Z,20.80
2022-11-25T21:33:51.937Z,21.10
2022-11-25T21:36:23.660Z,20.10
2022-11-25T21:38:54.740Z,19.57
2022-11-25T21:41:22.920Z,18.93
2022-11-25T21:43:52.098Z,19.10
2022-11-25T21:46:25.083Z,18.50
2022-11-25T21:48:53.584Z,18.53
2022-11-25T21:51:24.356Z,18.03
2022-11-25T21:53:53.108Z,17.00
2022-11-25T21:56:28.219Z,17.47
2022-11-25T21:58:57.042Z,17.33
2022-11-25T22:01:26.684Z,16.90
2022-11-25T22:03:55.300Z,16.90
2022-11-25T22:06:25.311Z,16.47
2022-11-25T22:08:53.510Z,16.53
2022-11-25T22:11:27.472Z,16.07
2022-11-25T22:13:55.755Z,15.33
2022-11-25T22:16:29.614Z,15.40
2022-11-25T22:18:58.530Z,14.97
2022-11-25T22:21:27.125Z,13.97
2022-11-25T22:23:55.562Z,14.70
2022-11-25T22:26:30.140Z,13.67
2022-11-25T22:28:59.926Z,13.37
2022-11-25T22:31:30.232Z,13.17
2022-11-25T22:33:58.548Z,13.50
2022-11-25T22:36:37.213Z,13.00
2022-11-25T22:39:15.896Z,12.60
2022-11-25T22:41:45.513Z,12.70
2022-11-25T22:44:21.800Z,12.57
2022-11-25T22:46:51.939Z,12.97
2022-11-25T22:49:29.978Z,12.50
2022-11-25T22:51:58.529Z,12.97
2022-11-25T22:54:26.785Z,12.37
2022-11-25T22:56:54.938Z,13.63
2022-11-25T22:59:23.157Z,12.90
2022-11-25T23:01:52.873Z,12.87
2022-11-25T23:04:21.658Z,13.30
2022-11-25T23:06:49.948Z,11.73
2022-11-25T23:09:20.455Z,12.90
2022-11-25T23:11:49.166Z,13.67
2022-11-25T23:14:17.373Z,12.57
2022-11-25T23:16:45.617Z,13.60
2022-11-25T23:19:16.930Z,12.77
2022-11-25T23:21:46.613Z,12.67
2022-11-25T23:24:16.899Z,13.17
2022-11-25T23:26:45.462Z,12.27
2022-11-25T23:29:13.646Z,11.73
2022-11-25T23:31:41.961Z,12.17
2022-11-25T23:34:13.589Z,12.17
2022-11-25T23:36:45.889Z,11.70
2022-11-25T23:39:20.114Z,11.73
2022-11-25T23:41:48.878Z,11.00
2022-11-25T23:44:24.793Z,11.40
2022-11-25T23:46:54.015Z,11.97
2022-11-25T23:49:25.523Z,11.50
2022-11-25T23:52:01.107Z,10.83
2022-11-25T23:54:40.277Z,10.87
2022-11-25T23:57:15.192Z,11.33
2022-11-25T23:59:43.803Z,10.73
